USCGC Healy — NEPP — position and weather

sailwx.info

Track history (hours):
 
Tides and Currents Weather Stations Pressure Air Temp Water Temp Dewpoint Dewpoint Depression Visibility Wind Speed Wind Dir Waves Ship Positions

Oceanographic research ship USCGC Healy (USA)

Detailed information on ship capabilities available from University of Delaware's Ocean Information Center and ARCUS's ALIAS (Arctic Logistics Information and Support) project.

Last reported at 2017-Jan-19 20:33 UTC. Time now 2017-Jan-19 21:27 UTC.
Position N 47°59' W 122°19'.

Type: Military. MMSI: 303902000.

Date/timePositionNaut miles runAvg speedWind from/ knotsBaromVisibWave heightAir tempDewpointWater temp
2017-Jan-19 20:33N 47°59' W 122°19'1 0.8
2017-Jan-19 19:33N 47°59' W 122°18'1 0.7
2017-Jan-19 18:33N 47°60' W 122°17'1 0.7
2017-Jan-19 17:33N 47°59' W 122°18'3 2.7
2017-Jan-19 16:33N 47°57' W 122°20'9 8.7
2017-Jan-19 15:34N 47°56' W 122°33'1514.6
2017-Jan-19 14:31N 48°09' W 122°45'1111.8
2017-Jan-19 13:33N 48°16' W 122°58'3 2.7
2017-Jan-19 12:33N 48°15' W 123°02'1 1.5
2017-Jan-19 11:33N 48°14' W 123°00'2 2.2
2017-Jan-19 10:33N 48°14' W 122°57'0 0.3
2017-Jan-19 09:28N 48°14' W 122°57'2 1.9
2017-Jan-19 08:31N 48°15' W 123°00'1 1.1
2017-Jan-19 07:30N 48°14' W 123°01'3 2.8
2017-Jan-19 06:30N 48°15' W 122°57'2 2.6
2017-Jan-19 05:33N 48°15' W 123°01'2 1.6
2017-Jan-19 04:31N 48°15' W 122°59'3 2.6
2017-Jan-19 03:32N 48°14' W 123°02'2 2.0
2017-Jan-19 02:32N 48°16' W 123°03'4 4.0
2017-Jan-19 01:33N 48°15' W 122°57'1 1.1
2017-Jan-19 00:33N 48°16' W 122°58'6 2.8
2017-Jan-18 22:30N 48°11' W 123°01'3 2.8
2017-Jan-18 21:28N 48°08' W 123°00'0 0.0
2017-Jan-18 18:24N 48°08' W 123°00'0 0.0
2017-Jan-18 16:22N 48°08' W 123°00'0 0.0
2017-Jan-18 15:09N 48°08' W 123°00'0 0.0
2017-Jan-18 14:31N 48°08' W 123°00'0 0.0
2017-Jan-18 10:16N 48°08' W 123°00'0 0.0
2017-Jan-18 08:30N 48°08' W 123°00'0 0.0
2017-Jan-18 04:27N 48°08' W 123°00'0 0.0
2017-Jan-18 03:06N 48°08' W 123°00'0 0.0
2017-Jan-18 02:06N 48°08' W 123°00'0 0.1
2017-Jan-18 01:27N 48°08' W 123°00'0 0.1
2017-Jan-18 00:19N 48°08' W 123°00'2 2.2
2017-Jan-17 23:33N 48°09' W 122°59'5 5.2
2017-Jan-17 22:31N 48°14' W 123°00'5 4.9
2017-Jan-17 21:33N 48°13' W 122°54'1110.1
2017-Jan-17 20:31N 48°07' W 122°40'1111.9
2017-Jan-17 19:33N 47°57' W 122°33'1414.5
2017-Jan-17 18:33N 47°43' W 122°27'9 8.5
2017-Jan-17 17:33N 47°36' W 122°21'  
2017-Jan-14 20:28N 47°35' W 122°21'0 0.0
2017-Jan-14 19:32N 47°35' W 122°21'0 0.0
2017-Jan-14 18:32N 47°35' W 122°21'0 0.0
2017-Jan-14 17:31N 47°35' W 122°21'0 0.0
2017-Jan-14 16:31N 47°35' W 122°21'0 0.0
2017-Jan-14 15:31N 47°35' W 122°21'0 0.0
2017-Jan-14 14:32N 47°35' W 122°21'0 0.0
2017-Jan-14 13:32N 47°35' W 122°21'0 0.0
2017-Jan-14 12:31N 47°35' W 122°21'0 0.0
2017-Jan-14 11:31N 47°35' W 122°21'0 0.0
2017-Jan-14 10:32N 47°35' W 122°21'0 0.0
2017-Jan-14 09:31N 47°35' W 122°21'0 0.0
2017-Jan-14 08:32N 47°35' W 122°21'0 0.0
2017-Jan-14 07:32N 47°35' W 122°21'0 0.0
2017-Jan-14 06:31N 47°35' W 122°21'0 0.0
2017-Jan-14 05:32N 47°35' W 122°21'0 0.0
2017-Jan-14 04:31N 47°35' W 122°21'0 0.0
2017-Jan-14 03:31N 47°35' W 122°21'0 0.0
2017-Jan-13 23:31N 47°35' W 122°21'0 0.0
2017-Jan-13 20:21N 47°35' W 122°21'0 0.0
2017-Jan-13 19:32N 47°35' W 122°21'0 0.0
2017-Jan-13 18:29N 47°35' W 122°21'0 0.0
2017-Jan-13 17:32N 47°35' W 122°21'1 1.0
2017-Jan-13 16:33N 47°36' W 122°22'1010.1
2017-Jan-13 15:33N 47°45' W 122°27'1414.2
2017-Jan-13 14:33N 47°58' W 122°36'1514.9
2017-Jan-13 13:33N 48°11' W 122°48'1715.8
2017-Jan-13 12:28N 48°13' W 123°14'1415.2
2017-Jan-13 11:33N 48°13' W 123°35'1615.7
2017-Jan-13 10:33N 48°14' W 123°58'1716.7
2017-Jan-13 09:33N 48°22' W 124°21'1616.3
2017-Jan-13 08:33N 48°28' W 124°43'1615.5
2017-Jan-13 07:33N 48°29' W 125°07'4 4.4
2017-Jan-13 06:32N 48°32' W 125°12'1515.3
2017-Jan-13 05:33N 48°31' W 124°49'1616.1
2017-Jan-13 04:33N 48°26' W 124°26'1515.3
2017-Jan-13 03:33N 48°19' W 124°05'1716.6
2017-Jan-13 02:33N 48°16' W 123°41'1615.6
2017-Jan-13 01:32N 48°14' W 123°17'1211.8
2017-Jan-13 00:33N 48°16' W 123°00'1 0.5
2017-Jan-12 23:34N 48°16' W 122°59'0 0.4
2017-Jan-12 22:32N 48°16' W 122°59'2 2.0
2017-Jan-12 21:32N 48°16' W 123°02'1 0.6
2017-Jan-12 20:33N 48°16' W 123°01'1 0.8
2017-Jan-12 19:34N 48°15' W 123°00'1 1.3
2017-Jan-12 18:33N 48°15' W 122°58'1 1.4
2017-Jan-12 17:34N 48°15' W 122°56'3 1.4
2017-Jan-12 15:33N 48°16' W 123°01'0 0.4
2017-Jan-12 14:34N 48°16' W 123°01'1 0.8
2017-Jan-12 13:33N 48°15' W 123°00'0 0.4
2017-Jan-12 12:31N 48°15' W 122°59'1 0.7
2017-Jan-12 11:30N 48°16' W 122°59'0 0.3
2017-Jan-12 10:21N 48°15' W 122°58'1 0.9
2017-Jan-12 09:33N 48°15' W 122°58'1 1.3
2017-Jan-12 08:32N 48°15' W 122°60'1 0.8
2017-Jan-12 07:31N 48°16' W 123°01'1 0.6
2017-Jan-12 06:17N 48°15' W 123°01'1 0.7
2017-Jan-12 05:32N 48°15' W 123°02'0 0.3
2017-Jan-12 04:27N 48°15' W 123°03'0 0.1
2017-Jan-12 03:29N 48°15' W 123°03'2 1.8
2017-Jan-12 02:28N 48°15' W 122°60'1 0.6
2017-Jan-12 01:30N 48°15' W 123°00'1 1.1
2017-Jan-12 00:34N 48°15' W 122°59'1 0.6
2017-Jan-11 23:30N 48°15' W 122°59'6 6.4
2017-Jan-11 22:30N 48°09' W 123°00'1 0.5
2017-Jan-11 19:32N 48°08' W 123°00'0 0.0
2017-Jan-11 18:19N 48°08' W 123°00'0 0.0
2017-Jan-11 17:28N 48°08' W 123°00'0 0.0
2017-Jan-11 16:29N 48°08' W 123°00'0 0.0
2017-Jan-11 14:32N 48°07' W 123°00'0 0.0
2017-Jan-11 12:04N 48°07' W 123°00'0 0.0
2017-Jan-11 11:25N 48°07' W 123°00'0 0.0
2017-Jan-11 10:16N 48°07' W 123°00'0 0.1
2017-Jan-11 09:28N 48°07' W 123°00'0 0.0
2017-Jan-11 08:17N 48°07' W 123°00'0 0.0
2017-Jan-11 07:26N 48°07' W 123°00'0 0.0
2017-Jan-11 04:25N 48°08' W 123°00'0 0.2
2017-Jan-11 03:33N 48°08' W 122°60'6 4.2
2017-Jan-11 02:09N 48°13' W 123°00'712.4
2017-Jan-11 01:33N 48°12' W 122°50'1616.0
2017-Jan-11 00:33N 47°59' W 122°36'8 7.7
2017-Jan-10 23:33N 47°53' W 122°28'5 4.6
2017-Jan-10 22:33N 47°49' W 122°27'9 9.2
2017-Jan-10 21:33N 47°39' W 122°28'6 5.9
2017-Jan-10 20:34N 47°36' W 122°21'0 0.3
2017-Jan-10 19:33N 47°35' W 122°21'0 0.0
2017-Jan-10 18:34N 47°35' W 122°21'0 0.0
2017-Jan-10 17:33N 47°35' W 122°21'0 0.0
2017-Jan-10 16:33N 47°35' W 122°21'0 0.0
2017-Jan-10 15:33N 47°35' W 122°21'0 0.0
2017-Jan-09 21:33N 47°35' W 122°21'  
Track history (hours):
 
Tides and Currents Weather Stations Pressure Air Temp Water Temp Dewpoint Dewpoint Depression Visibility Wind Speed Wind Dir Waves Ship Positions

Oceanographic research ship USCGC Healy (USA)

Detailed information on ship capabilities available from University of Delaware's Ocean Information Center and ARCUS's ALIAS (Arctic Logistics Information and Support) project.

Last reported at 2017-Jan-19 20:33 UTC. Time now 2017-Jan-19 21:27 UTC.
Position N 47°59' W 122°19'.

Type: Military. MMSI: 303902000.

Date/timePositionNaut miles runAvg speedWind from/ knotsBaromVisibWave heightAir tempDewpointWater temp
2017-Jan-19 20:33N 47°59' W 122°19'1 0.8
2017-Jan-19 19:33N 47°59' W 122°18'1 0.7
2017-Jan-19 18:33N 47°60' W 122°17'1 0.7
2017-Jan-19 17:33N 47°59' W 122°18'3 2.7
2017-Jan-19 16:33N 47°57' W 122°20'9 8.7
2017-Jan-19 15:34N 47°56' W 122°33'1514.6
2017-Jan-19 14:31N 48°09' W 122°45'1111.8
2017-Jan-19 13:33N 48°16' W 122°58'3 2.7
2017-Jan-19 12:33N 48°15' W 123°02'1 1.5
2017-Jan-19 11:33N 48°14' W 123°00'2 2.2
2017-Jan-19 10:33N 48°14' W 122°57'0 0.3
2017-Jan-19 09:28N 48°14' W 122°57'2 1.9
2017-Jan-19 08:31N 48°15' W 123°00'1 1.1
2017-Jan-19 07:30N 48°14' W 123°01'3 2.8
2017-Jan-19 06:30N 48°15' W 122°57'2 2.6
2017-Jan-19 05:33N 48°15' W 123°01'2 1.6
2017-Jan-19 04:31N 48°15' W 122°59'3 2.6
2017-Jan-19 03:32N 48°14' W 123°02'2 2.0
2017-Jan-19 02:32N 48°16' W 123°03'4 4.0
2017-Jan-19 01:33N 48°15' W 122°57'1 1.1
2017-Jan-19 00:33N 48°16' W 122°58'6 2.8
2017-Jan-18 22:30N 48°11' W 123°01'3 2.8
2017-Jan-18 21:28N 48°08' W 123°00'0 0.0
2017-Jan-18 18:24N 48°08' W 123°00'0 0.0
2017-Jan-18 16:22N 48°08' W 123°00'0 0.0
2017-Jan-18 15:09N 48°08' W 123°00'0 0.0
2017-Jan-18 14:31N 48°08' W 123°00'0 0.0
2017-Jan-18 10:16N 48°08' W 123°00'0 0.0
2017-Jan-18 08:30N 48°08' W 123°00'0 0.0
2017-Jan-18 04:27N 48°08' W 123°00'0 0.0
2017-Jan-18 03:06N 48°08' W 123°00'0 0.0
2017-Jan-18 02:06N 48°08' W 123°00'0 0.1
2017-Jan-18 01:27N 48°08' W 123°00'0 0.1
2017-Jan-18 00:19N 48°08' W 123°00'2 2.2
2017-Jan-17 23:33N 48°09' W 122°59'5 5.2
2017-Jan-17 22:31N 48°14' W 123°00'5 4.9
2017-Jan-17 21:33N 48°13' W 122°54'1110.1
2017-Jan-17 20:31N 48°07' W 122°40'1111.9
2017-Jan-17 19:33N 47°57' W 122°33'1414.5
2017-Jan-17 18:33N 47°43' W 122°27'9 8.5
2017-Jan-17 17:33N 47°36' W 122°21'  
2017-Jan-14 20:28N 47°35' W 122°21'0 0.0
2017-Jan-14 19:32N 47°35' W 122°21'0 0.0
2017-Jan-14 18:32N 47°35' W 122°21'0 0.0
2017-Jan-14 17:31N 47°35' W 122°21'0 0.0
2017-Jan-14 16:31N 47°35' W 122°21'0 0.0
2017-Jan-14 15:31N 47°35' W 122°21'0 0.0
2017-Jan-14 14:32N 47°35' W 122°21'0 0.0
2017-Jan-14 13:32N 47°35' W 122°21'0 0.0
2017-Jan-14 12:31N 47°35' W 122°21'0 0.0
2017-Jan-14 11:31N 47°35' W 122°21'0 0.0
2017-Jan-14 10:32N 47°35' W 122°21'0 0.0
2017-Jan-14 09:31N 47°35' W 122°21'0 0.0
2017-Jan-14 08:32N 47°35' W 122°21'0 0.0
2017-Jan-14 07:32N 47°35' W 122°21'0 0.0
2017-Jan-14 06:31N 47°35' W 122°21'0 0.0
2017-Jan-14 05:32N 47°35' W 122°21'0 0.0
2017-Jan-14 04:31N 47°35' W 122°21'0 0.0
2017-Jan-14 03:31N 47°35' W 122°21'0 0.0
2017-Jan-13 23:31N 47°35' W 122°21'0 0.0
2017-Jan-13 20:21N 47°35' W 122°21'0 0.0
2017-Jan-13 19:32N 47°35' W 122°21'0 0.0
2017-Jan-13 18:29N 47°35' W 122°21'0 0.0
2017-Jan-13 17:32N 47°35' W 122°21'1 1.0
2017-Jan-13 16:33N 47°36' W 122°22'1010.1
2017-Jan-13 15:33N 47°45' W 122°27'1414.2
2017-Jan-13 14:33N 47°58' W 122°36'1514.9
2017-Jan-13 13:33N 48°11' W 122°48'1715.8
2017-Jan-13 12:28N 48°13' W 123°14'1415.2
2017-Jan-13 11:33N 48°13' W 123°35'1615.7
2017-Jan-13 10:33N 48°14' W 123°58'1716.7
2017-Jan-13 09:33N 48°22' W 124°21'1616.3
2017-Jan-13 08:33N 48°28' W 124°43'1615.5
2017-Jan-13 07:33N 48°29' W 125°07'4 4.4
2017-Jan-13 06:32N 48°32' W 125°12'1515.3
2017-Jan-13 05:33N 48°31' W 124°49'1616.1
2017-Jan-13 04:33N 48°26' W 124°26'1515.3
2017-Jan-13 03:33N 48°19' W 124°05'1716.6
2017-Jan-13 02:33N 48°16' W 123°41'1615.6
2017-Jan-13 01:32N 48°14' W 123°17'1211.8
2017-Jan-13 00:33N 48°16' W 123°00'1 0.5
2017-Jan-12 23:34N 48°16' W 122°59'0 0.4
2017-Jan-12 22:32N 48°16' W 122°59'2 2.0
2017-Jan-12 21:32N 48°16' W 123°02'1 0.6
2017-Jan-12 20:33N 48°16' W 123°01'1 0.8
2017-Jan-12 19:34N 48°15' W 123°00'1 1.3
2017-Jan-12 18:33N 48°15' W 122°58'1 1.4
2017-Jan-12 17:34N 48°15' W 122°56'3 1.4
2017-Jan-12 15:33N 48°16' W 123°01'0 0.4
2017-Jan-12 14:34N 48°16' W 123°01'1 0.8
2017-Jan-12 13:33N 48°15' W 123°00'0 0.4
2017-Jan-12 12:31N 48°15' W 122°59'1 0.7
2017-Jan-12 11:30N 48°16' W 122°59'0 0.3
2017-Jan-12 10:21N 48°15' W 122°58'1 0.9
2017-Jan-12 09:33N 48°15' W 122°58'1 1.3
2017-Jan-12 08:32N 48°15' W 122°60'1 0.8
2017-Jan-12 07:31N 48°16' W 123°01'1 0.6
2017-Jan-12 06:17N 48°15' W 123°01'1 0.7
2017-Jan-12 05:32N 48°15' W 123°02'0 0.3
2017-Jan-12 04:27N 48°15' W 123°03'0 0.1
2017-Jan-12 03:29N 48°15' W 123°03'2 1.8
2017-Jan-12 02:28N 48°15' W 122°60'1 0.6
2017-Jan-12 01:30N 48°15' W 123°00'1 1.1
2017-Jan-12 00:34N 48°15' W 122°59'1 0.6
2017-Jan-11 23:30N 48°15' W 122°59'6 6.4
2017-Jan-11 22:30N 48°09' W 123°00'1 0.5
2017-Jan-11 19:32N 48°08' W 123°00'0 0.0
2017-Jan-11 18:19N 48°08' W 123°00'0 0.0
2017-Jan-11 17:28N 48°08' W 123°00'0 0.0
2017-Jan-11 16:29N 48°08' W 123°00'0 0.0
2017-Jan-11 14:32N 48°07' W 123°00'0 0.0
2017-Jan-11 12:04N 48°07' W 123°00'0 0.0
2017-Jan-11 11:25N 48°07' W 123°00'0 0.0
2017-Jan-11 10:16N 48°07' W 123°00'0 0.1
2017-Jan-11 09:28N 48°07' W 123°00'0 0.0
2017-Jan-11 08:17N 48°07' W 123°00'0 0.0
2017-Jan-11 07:26N 48°07' W 123°00'0 0.0
2017-Jan-11 04:25N 48°08' W 123°00'0 0.2
2017-Jan-11 03:33N 48°08' W 122°60'6 4.2
2017-Jan-11 02:09N 48°13' W 123°00'712.4
2017-Jan-11 01:33N 48°12' W 122°50'1616.0
2017-Jan-11 00:33N 47°59' W 122°36'8 7.7
2017-Jan-10 23:33N 47°53' W 122°28'5 4.6
2017-Jan-10 22:33N 47°49' W 122°27'9 9.2
2017-Jan-10 21:33N 47°39' W 122°28'6 5.9
2017-Jan-10 20:34N 47°36' W 122°21'0 0.3
2017-Jan-10 19:33N 47°35' W 122°21'0 0.0
2017-Jan-10 18:34N 47°35' W 122°21'0 0.0
2017-Jan-10 17:33N 47°35' W 122°21'0 0.0
2017-Jan-10 16:33N 47°35' W 122°21'0 0.0
2017-Jan-10 15:33N 47°35' W 122°21'0 0.0
2017-Jan-09 21:33N 47°35' W 122°21'  

Dump ship's entire track history